METAR Data
IDs: Format: Raw Decoded Include TAF

Data at: 1236 UTC 16 Jul 2019

KONM 161215Z AUTO 00000KT 10SM CLR 20/07 A3010 RMK AO2 T02040068
KONM 161155Z AUTO 00000KT 10SM CLR 21/07 A3010 RMK AO2 T02110067 10266 20205
KONM 161135Z AUTO 00000KT 10SM CLR 21/07 A3009 RMK AO2 T02050070
KONM 161115Z AUTO 00000KT 10SM CLR 21/08 A3008 RMK AO2 T02140079
KONM 161055Z AUTO 00000KT 10SM CLR 21/09 A3008 RMK AO2 T02130085
KONM 161035Z AUTO 00000KT 10SM CLR 22/09 A3007 RMK AO2 T02170086
KONM 161015Z AUTO 00000KT 10SM CLR 22/09 A3006 RMK AO2 T02210086
KONM 160955Z AUTO 00000KT 10SM CLR 23/09 A3007 RMK AO2 T02310086
KONM 160935Z AUTO 00000KT 10SM CLR 24/09 A3007 RMK AO2 T02360090
KONM 160915Z AUTO 00000KT 10SM CLR 24/09 A3008 RMK AO2 T02400085
KONM 160855Z AUTO 00000KT 10SM CLR 24/08 A3008 RMK AO2 T02390081
KONM 160835Z AUTO 00000KT 10SM CLR 24/08 A3008 RMK AO2 T02420083
KONM 160815Z AUTO 28003KT 10SM CLR 25/08 A3008 RMK AO2 T02450081
KONM 160755Z AUTO 00000KT 10SM CLR 24/08 A3009 RMK AO2 T02410080
KONM 160735Z AUTO 23003KT 10SM CLR 25/08 A3009 RMK AO2 T02490080
KONM 160715Z AUTO 25004KT 10SM CLR 25/08 A3009 RMK AO2 T02530083
KONM 160655Z AUTO 18003KT 10SM CLR 26/08 A3008 RMK AO2 T02550081
KONM 160635Z AUTO 25003KT 10SM CLR 26/08 A3009 RMK AO2 T02560081
KONM 160615Z AUTO 26007KT 10SM CLR 26/08 A3009 RMK AO2 T02610084
KONM 160555Z AUTO 24006KT 10SM CLR 27/09 A3009 RMK AO2 T02650085 10301 20265 403750213
KONM 160535Z AUTO 00000KT 10SM CLR 27/08 A3009 RMK AO2 T02710083
KONM 160515Z AUTO 28004KT 10SM SCT120 27/09 A3009 RMK AO2 T02700085
KONM 160455Z AUTO 11006KT 10SM SCT110 27/08 A3009 RMK AO2 T02740084
KONM 160435Z AUTO 16005KT 10SM SCT110 27/08 A3011 RMK AO2 T02710080
KONM 160415Z AUTO 18006KT 10SM CLR 27/08 A3012 RMK AO2 T02700080
KONM 160355Z AUTO 05004KT 10SM CLR 28/08 A3009 RMK AO2 T02770080
KONM 160335Z AUTO 05009KT 10SM CLR 28/08 A3009 RMK AO2 T02810080
KONM 160315Z AUTO 09007KT 10SM SCT095 29/08 A3010 RMK AO2 T02880077
KONM 160255Z AUTO 34006G15KT 10SM BKN095 30/06 A3008 RMK AO2 LTG DSNT E T02970060
KONM 160235Z AUTO 08013KT 10SM CLR 29/07 A3008 RMK AO2 T02900072
KONM 160215Z AUTO 04004KT 10SM CLR 30/06 A3006 RMK AO2 T02950059
KONM 160155Z AUTO 02006KT 10SM CLR 30/06 A3005 RMK AO2 LTG DSNT E T02970064
KONM 160135Z AUTO 00000KT 10SM CLR 30/07 A3004 RMK AO2 T02950071
KONM 160115Z AUTO 09007KT 10SM CLR 29/08 A3004 RMK AO2 LTG DSNT E T02870083
KONM 160055Z AUTO 34005KT 10SM CLR 30/07 A3004 RMK AO2 LTG DSNT E AND W T02950073
KONM 160035Z AUTO 34006KT 10SM CLR 29/09 A3004 RMK AO2 T02870088
KONM 160015Z AUTO 34009G14KT 10SM SCT120 29/09 A3005 RMK AO2 T02890085
KONM 152355Z AUTO 01009G22KT 10SM SCT120 30/08 A3006 RMK AO2 LTG DSNT E T03030083 10375 20303
KONM 152335Z AUTO 30018G27KT 10SM CLR 31/08 A3004 RMK AO2 LTG DSNT N THRU E T03130079
KONM 152315Z AUTO 28012G17KT 10SM SCT120 34/06 A3002 RMK AO2 LTG DSNT W THRU NE T03370058
KONM 152255Z AUTO 03005KT 10SM CLR 34/06 A3002 RMK AO2 LTG DSNT SW THRU NE T03420056
KONM 152235Z AUTO 00000KT 10SM CLR 34/06 A3002 RMK AO2 LTG DSNT W THRU E T03370063
KONM 152215Z AUTO 36004G10KT 10SM CLR 35/07 A3002 RMK AO2 LTG DSNT NW T03460065
KONM 152155Z AUTO 12005G17KT 10SM CLR 35/05 A3003 RMK AO2 LTG DSNT E W AND NW T03520045
KONM 152135Z AUTO 15008KT 10SM VCTS CLR 36/05 A3003 RMK AO2 LTG DSNT W THRU N T03590048
KONM 152115Z AUTO 13009G15KT 10SM CLR 37/06 A3004 RMK AO2 LTG DSNT SW THRU N T03740058
KONM 152055Z AUTO 10004KT 10SM CLR 36/06 A3006 RMK AO2 LTG DSNT W T03630057
KONM 152035Z AUTO 14006KT 10SM CLR 36/06 A3006 RMK AO2 LTG DSNT SE W AND NW T03610061
KONM 152015Z AUTO 14006KT 10SM CLR 36/07 A3007 RMK AO2 LTG DSNT W T03600067
KONM 151955Z AUTO 00000KT 10SM CLR 35/07 A3008 RMK AO2 T03470067
KONM 151935Z AUTO 15004KT 10SM CLR 35/07 A3009 RMK AO2 T03490065
KONM 151915Z AUTO 14005KT 10SM CLR 35/06 A3010 RMK AO2 T03470060
KONM 151855Z AUTO 05005KT 10SM CLR 35/07 A3011 RMK AO2 T03480069
KONM 151835Z AUTO 10006KT 10SM CLR 34/07 A3013 RMK AO2 T03420067
KONM 151815Z AUTO 08006KT 10SM CLR 34/07 A3013 RMK AO2 T03350074
KONM 151755Z AUTO 08005KT 10SM CLR 33/07 A3014 RMK AO2 T03260074 10330 20213
KONM 151735Z AUTO 07003KT 10SM CLR 32/08 A3014 RMK AO2 T03210076
KONM 151715Z AUTO 13004KT 10SM CLR 31/08 A3014 RMK AO2 T03130080
KONM 151655Z AUTO 00000KT 10SM CLR 31/08 A3015 RMK AO2 T03050079
KONM 151635Z AUTO 00000KT 10SM CLR 30/08 A3016 RMK AO2 T02990080
KONM 151615Z AUTO 00000KT 10SM CLR 29/08 A3016 RMK AO2 T02940081
KONM 151555Z AUTO 09003KT 10SM CLR 29/09 A3017 RMK AO2 T02930087
KONM 151535Z AUTO 07004KT 10SM CLR 28/08 A3017 RMK AO2 T02830083
KONM 151515Z AUTO 05003KT 10SM CLR 28/09 A3017 RMK AO2 T02750088
KONM 151455Z AUTO 00000KT 10SM CLR 27/09 A3018 RMK AO2 T02650091
KONM 151435Z AUTO 02003KT 10SM CLR 26/09 A3018 RMK AO2 T02620090
KONM 151415Z AUTO 02003KT 10SM CLR 26/09 A3017 RMK AO2 T02580093
KONM 151355Z AUTO 01004KT 10SM CLR 25/09 A3018 RMK AO2 T02500093
KONM 151335Z AUTO 35004KT 10SM CLR 24/09 A3018 RMK AO2 T02420091
KONM 151315Z AUTO 33003KT 10SM CLR 24/09 A3018 RMK AO2 T02350087
KONM 151255Z AUTO 32005KT 10SM CLR 23/09 A3017 RMK AO2 T02260089
KONM 151235Z AUTO 31005KT 10SM CLR 22/09 A3017 RMK AO2 T02180092
KONM 151215Z AUTO 31006KT 10SM CLR 21/10 A3017 RMK AO2 T02130095
KONM 151155Z AUTO 01005KT 10SM CLR 23/10 A3017 RMK AO2 T02250098 10262 20225
KONM 151135Z AUTO 02006KT 10SM CLR 23/10 A3017 RMK AO2 T02270100
KONM 151115Z AUTO 36008KT 10SM CLR 23/10 A3016 RMK AO2 T02340098
KONM 151055Z AUTO 36010KT 10SM CLR 23/10 A3016 RMK AO2 T02320096
KONM 151035Z AUTO 34006KT 10SM CLR 23/09 A3015 RMK AO2 T02330094
KONM 151015Z AUTO 34008KT 10SM CLR 24/09 A3015 RMK AO2 T02360087
KONM 150955Z AUTO 32008KT 10SM CLR 23/08 A3015 RMK AO2 T02330084
KONM 150935Z AUTO 36007KT 10SM CLR 23/09 A3015 RMK AO2 T02300092
KONM 150915Z AUTO 03008KT 10SM CLR 24/08 A3015 RMK AO2 T02400077
KONM 150855Z AUTO 34006KT 10SM CLR 25/08 A3015 RMK AO2 T02450076
KONM 150835Z AUTO 34008KT 10SM CLR 24/07 A3015 RMK AO2 T02420067
KONM 150815Z AUTO 34006KT 10SM CLR 24/07 A3016 RMK AO2 T02380068
KONM 150755Z AUTO 02007KT 10SM CLR 25/07 A3016 RMK AO2 T02470066
KONM 150735Z AUTO 34003KT 10SM CLR 25/06 A3016 RMK AO2 T02450057
KONM 150715Z AUTO 27004KT 10SM CLR 24/06 A3015 RMK AO2 T02350055
KONM 150655Z AUTO 28004KT 10SM CLR 24/06 A3015 RMK AO2 LTG DSNT NE T02380055
KONM 150635Z AUTO 00000KT 10SM CLR 26/06 A3015 RMK AO2 T02550060
KONM 150615Z AUTO 00000KT 10SM CLR 26/06 A3014 RMK AO2 T02570059
KONM 150555Z AUTO 00000KT 10SM CLR 26/06 A3014 RMK AO2 T02610059 10365 20261 403650205
KONM 150535Z AUTO 04004KT 10SM CLR 27/06 A3014 RMK AO2 T02670059
KONM 150515Z AUTO 27005KT 10SM CLR 27/06 A3013 RMK AO2 T02660060
KONM 150455Z AUTO 25004KT 10SM CLR 27/05 A3013 RMK AO2 T02690054
KONM 150435Z AUTO 25005KT 10SM CLR 27/05 A3013 RMK AO2 T02730050
KONM 150415Z AUTO 25005KT 10SM CLR 29/05 A3013 RMK AO2 T02850050
KONM 150355Z AUTO 25005KT 10SM CLR 29/05 A3013 RMK AO2 T02920051
KONM 150335Z AUTO 25007KT 10SM CLR 30/05 A3013 RMK AO2 LTG DSNT S T03000053
KONM 150315Z AUTO 23003KT 10SM SCT120 30/06 A3013 RMK AO2 T02980060
KONM 150255Z AUTO 26005KT 10SM SCT120 30/06 A3012 RMK AO2 T02980062
KONM 150235Z AUTO 14006KT 10SM CLR 31/06 A3011 RMK AO2 T03060058
KONM 150215Z AUTO 12011KT 10SM CLR 32/05 A3011 RMK AO2 T03150051
KONM 150155Z AUTO 11010G16KT 10SM CLR 32/05 A3010 RMK AO2 T03240050
KONM 150135Z AUTO 12015G19KT 10SM SCT120 34/06 A3010 RMK AO2 T03360056
KONM 150115Z AUTO 10005KT 10SM SCT120 35/05 A3009 RMK AO2 T03460052
KONM 150055Z AUTO 29006KT 10SM CLR 36/04 A3008 RMK AO2 T03550035